sensor_id;sensor_type;location;lat;lon;timestamp;P1;durP1;ratioP1;P2;durP2;ratioP2
24008;SDS011;12217;50.792;4.372;2022-07-04T00:00:04;3.47;;;1.50;;
24008;SDS011;12217;50.792;4.372;2022-07-04T00:02:32;5.53;;;1.73;;
24008;SDS011;12217;50.792;4.372;2022-07-04T00:04:58;3.03;;;1.70;;
24008;SDS011;12217;50.792;4.372;2022-07-04T00:07:23;3.30;;;1.65;;
24008;SDS011;12217;50.792;4.372;2022-07-04T00:09:49;4.22;;;1.60;;
24008;SDS011;12217;50.792;4.372;2022-07-04T00:12:15;2.95;;;1.85;;
24008;SDS011;12217;50.792;4.372;2022-07-04T00:14:40;2.45;;;1.63;;
24008;SDS011;12217;50.792;4.372;2022-07-04T00:17:06;2.75;;;1.50;;
24008;SDS011;12217;50.792;4.372;2022-07-04T00:19:32;3.03;;;1.50;;
24008;SDS011;12217;50.792;4.372;2022-07-04T00:21:57;4.95;;;1.80;;
24008;SDS011;12217;50.792;4.372;2022-07-04T00:24:23;3.35;;;1.70;;
24008;SDS011;12217;50.792;4.372;2022-07-04T00:26:49;2.47;;;1.52;;
24008;SDS011;12217;50.792;4.372;2022-07-04T00:29:14;4.93;;;1.70;;
24008;SDS011;12217;50.792;4.372;2022-07-04T00:31:40;3.90;;;1.70;;
24008;SDS011;12217;50.792;4.372;2022-07-04T00:34:06;2.88;;;1.35;;
24008;SDS011;12217;50.792;4.372;2022-07-04T00:36:32;5.43;;;1.80;;
24008;SDS011;12217;50.792;4.372;2022-07-04T00:38:57;2.53;;;1.67;;
24008;SDS011;12217;50.792;4.372;2022-07-04T00:41:23;3.22;;;1.77;;
24008;SDS011;12217;50.792;4.372;2022-07-04T00:44:08;2.97;;;1.80;;
24008;SDS011;12217;50.792;4.372;2022-07-04T00:46:36;3.28;;;1.60;;
24008;SDS011;12217;50.792;4.372;2022-07-04T00:49:05;3.72;;;1.55;;
24008;SDS011;12217;50.792;4.372;2022-07-04T00:51:31;4.70;;;1.98;;
24008;SDS011;12217;50.792;4.372;2022-07-04T00:53:57;3.30;;;1.90;;
24008;SDS011;12217;50.792;4.372;2022-07-04T00:56:24;4.10;;;1.92;;
24008;SDS011;12217;50.792;4.372;2022-07-04T00:58:50;4.25;;;1.67;;
24008;SDS011;12217;50.792;4.372;2022-07-04T01:01:18;3.60;;;1.70;;
24008;SDS011;12217;50.792;4.372;2022-07-04T01:03:44;2.65;;;1.40;;
24008;SDS011;12217;50.792;4.372;2022-07-04T01:06:10;3.55;;;1.50;;
24008;SDS011;12217;50.792;4.372;2022-07-04T01:08:41;4.00;;;1.60;;
24008;SDS011;12217;50.792;4.372;2022-07-04T01:11:07;3.92;;;1.67;;
24008;SDS011;12217;50.792;4.372;2022-07-04T01:13:34;4.88;;;1.80;;
24008;SDS011;12217;50.792;4.372;2022-07-04T01:16:00;4.18;;;1.80;;
24008;SDS011;12217;50.792;4.372;2022-07-04T01:18:26;4.07;;;2.00;;
24008;SDS011;12217;50.792;4.372;2022-07-04T01:20:52;4.97;;;2.10;;
24008;SDS011;12217;50.792;4.372;2022-07-04T01:23:17;3.65;;;1.83;;
24008;SDS011;12217;50.792;4.372;2022-07-04T01:25:43;4.45;;;2.38;;
24008;SDS011;12217;50.792;4.372;2022-07-04T01:28:09;4.13;;;2.05;;
24008;SDS011;12217;50.792;4.372;2022-07-04T01:30:35;3.70;;;1.80;;
24008;SDS011;12217;50.792;4.372;2022-07-04T01:33:02;3.70;;;1.67;;
24008;SDS011;12217;50.792;4.372;2022-07-04T01:35:28;3.92;;;1.63;;
24008;SDS011;12217;50.792;4.372;2022-07-04T01:37:53;3.58;;;1.75;;
24008;SDS011;12217;50.792;4.372;2022-07-04T01:40:19;5.25;;;1.70;;
24008;SDS011;12217;50.792;4.372;2022-07-04T01:42:45;2.42;;;1.52;;
24008;SDS011;12217;50.792;4.372;2022-07-04T01:45:11;4.60;;;1.80;;
24008;SDS011;12217;50.792;4.372;2022-07-04T01:47:37;4.30;;;1.73;;
24008;SDS011;12217;50.792;4.372;2022-07-04T01:50:04;3.45;;;1.90;;
24008;SDS011;12217;50.792;4.372;2022-07-04T01:52:32;5.90;;;1.90;;
24008;SDS011;12217;50.792;4.372;2022-07-04T01:54:59;4.13;;;1.80;;
24008;SDS011;12217;50.792;4.372;2022-07-04T01:57:25;7.45;;;2.53;;
24008;SDS011;12217;50.792;4.372;2022-07-04T01:59:50;4.30;;;1.90;;
24008;SDS011;12217;50.792;4.372;2022-07-04T02:02:35;4.78;;;1.83;;
24008;SDS011;12217;50.792;4.372;2022-07-04T02:05:02;3.95;;;1.73;;
24008;SDS011;12217;50.792;4.372;2022-07-04T02:07:29;4.40;;;1.90;;
24008;SDS011;12217;50.792;4.372;2022-07-04T02:09:54;4.55;;;1.80;;
24008;SDS011;12217;50.792;4.372;2022-07-04T02:12:20;5.53;;;2.13;;
24008;SDS011;12217;50.792;4.372;2022-07-04T02:15:04;4.20;;;1.75;;
24008;SDS011;12217;50.792;4.372;2022-07-04T02:17:31;2.88;;;1.95;;
24008;SDS011;12217;50.792;4.372;2022-07-04T02:19:56;4.50;;;1.90;;
24008;SDS011;12217;50.792;4.372;2022-07-04T02:22:22;4.25;;;2.05;;
24008;SDS011;12217;50.792;4.372;2022-07-04T02:24:47;5.18;;;1.98;;
24008;SDS011;12217;50.792;4.372;2022-07-04T02:27:13;3.55;;;1.80;;
24008;SDS011;12217;50.792;4.372;2022-07-04T02:29:39;4.47;;;2.10;;
24008;SDS011;12217;50.792;4.372;2022-07-04T02:32:05;6.13;;;2.65;;
24008;SDS011;12217;50.792;4.372;2022-07-04T02:34:31;5.03;;;2.35;;
24008;SDS011;12217;50.792;4.372;2022-07-04T02:36:56;2.90;;;1.90;;
24008;SDS011;12217;50.792;4.372;2022-07-04T02:39:22;5.15;;;2.10;;
24008;SDS011;12217;50.792;4.372;2022-07-04T02:41:48;4.88;;;2.42;;
24008;SDS011;12217;50.792;4.372;2022-07-04T02:44:13;6.30;;;2.22;;
24008;SDS011;12217;50.792;4.372;2022-07-04T02:46:39;3.72;;;1.80;;
24008;SDS011;12217;50.792;4.372;2022-07-04T02:49:04;4.32;;;2.35;;
24008;SDS011;12217;50.792;4.372;2022-07-04T02:51:30;6.32;;;2.05;;
24008;SDS011;12217;50.792;4.372;2022-07-04T02:53:56;4.45;;;1.90;;
24008;SDS011;12217;50.792;4.372;2022-07-04T02:56:22;5.05;;;2.00;;
24008;SDS011;12217;50.792;4.372;2022-07-04T02:58:48;4.32;;;2.50;;
24008;SDS011;12217;50.792;4.372;2022-07-04T03:01:14;8.98;;;2.72;;
24008;SDS011;12217;50.792;4.372;2022-07-04T03:03:40;3.92;;;2.10;;
24008;SDS011;12217;50.792;4.372;2022-07-04T03:06:09;4.20;;;2.50;;
24008;SDS011;12217;50.792;4.372;2022-07-04T03:08:35;3.22;;;2.22;;
24008;SDS011;12217;50.792;4.372;2022-07-04T03:11:01;4.80;;;2.45;;
24008;SDS011;12217;50.792;4.372;2022-07-04T03:13:27;5.38;;;2.83;;
24008;SDS011;12217;50.792;4.372;2022-07-04T03:15:53;7.45;;;3.05;;
24008;SDS011;12217;50.792;4.372;2022-07-04T03:18:19;4.70;;;2.30;;
24008;SDS011;12217;50.792;4.372;2022-07-04T03:20:45;6.95;;;3.13;;
24008;SDS011;12217;50.792;4.372;2022-07-04T03:23:11;5.57;;;2.83;;
24008;SDS011;12217;50.792;4.372;2022-07-04T03:25:37;4.47;;;2.50;;
24008;SDS011;12217;50.792;4.372;2022-07-04T03:28:03;4.32;;;2.50;;
24008;SDS011;12217;50.792;4.372;2022-07-04T03:30:29;4.20;;;2.42;;
24008;SDS011;12217;50.792;4.372;2022-07-04T03:32:55;5.47;;;2.72;;
24008;SDS011;12217;50.792;4.372;2022-07-04T03:35:20;5.38;;;2.38;;
24008;SDS011;12217;50.792;4.372;2022-07-04T03:37:46;4.50;;;2.40;;
24008;SDS011;12217;50.792;4.372;2022-07-04T03:40:11;6.20;;;2.53;;
24008;SDS011;12217;50.792;4.372;2022-07-04T03:42:37;3.55;;;2.70;;
24008;SDS011;12217;50.792;4.372;2022-07-04T03:45:03;5.63;;;2.40;;
24008;SDS011;12217;50.792;4.372;2022-07-04T03:47:30;4.35;;;2.50;;
24008;SDS011;12217;50.792;4.372;2022-07-04T03:49:56;5.60;;;2.90;;
24008;SDS011;12217;50.792;4.372;2022-07-04T03:52:22;4.78;;;2.80;;
24008;SDS011;12217;50.792;4.372;2022-07-04T03:54:48;7.70;;;2.45;;
24008;SDS011;12217;50.792;4.372;2022-07-04T03:57:14;4.68;;;2.08;;
24008;SDS011;12217;50.792;4.372;2022-07-04T03:59:39;5.05;;;2.58;;
24008;SDS011;12217;50.792;4.372;2022-07-04T04:02:05;6.07;;;2.40;;
24008;SDS011;12217;50.792;4.372;2022-07-04T04:04:30;2.85;;;1.98;;
24008;SDS011;12217;50.792;4.372;2022-07-04T04:07:14;5.68;;;2.20;;
24008;SDS011;12217;50.792;4.372;2022-07-04T04:09:40;2.60;;;1.98;;
24008;SDS011;12217;50.792;4.372;2022-07-04T04:12:06;4.72;;;2.20;;
24008;SDS011;12217;50.792;4.372;2022-07-04T04:14:32;4.60;;;2.22;;
24008;SDS011;12217;50.792;4.372;2022-07-04T04:16:57;5.10;;;2.25;;
24008;SDS011;12217;50.792;4.372;2022-07-04T04:19:23;4.40;;;2.10;;
24008;SDS011;12217;50.792;4.372;2022-07-04T04:21:49;3.30;;;2.08;;
24008;SDS011;12217;50.792;4.372;2022-07-04T04:24:14;4.65;;;2.00;;
24008;SDS011;12217;50.792;4.372;2022-07-04T04:26:40;5.32;;;2.40;;
24008;SDS011;12217;50.792;4.372;2022-07-04T04:29:05;5.45;;;2.13;;
24008;SDS011;12217;50.792;4.372;2022-07-04T04:31:31;4.25;;;2.25;;
24008;SDS011;12217;50.792;4.372;2022-07-04T04:33:57;3.47;;;2.10;;
24008;SDS011;12217;50.792;4.372;2022-07-04T04:36:23;5.95;;;2.10;;
24008;SDS011;12217;50.792;4.372;2022-07-04T04:38:48;4.30;;;2.30;;
24008;SDS011;12217;50.792;4.372;2022-07-04T04:41:14;3.05;;;2.10;;
24008;SDS011;12217;50.792;4.372;2022-07-04T04:43:41;5.40;;;1.90;;
24008;SDS011;12217;50.792;4.372;2022-07-04T04:46:07;5.22;;;1.80;;
24008;SDS011;12217;50.792;4.372;2022-07-04T04:48:33;3.67;;;2.10;;
24008;SDS011;12217;50.792;4.372;2022-07-04T04:50:58;4.25;;;1.88;;
24008;SDS011;12217;50.792;4.372;2022-07-04T04:53:24;4.60;;;2.20;;
24008;SDS011;12217;50.792;4.372;2022-07-04T04:55:51;4.53;;;2.10;;
24008;SDS011;12217;50.792;4.372;2022-07-04T04:58:19;6.82;;;2.50;;
24008;SDS011;12217;50.792;4.372;2022-07-04T05:00:45;6.95;;;2.35;;
24008;SDS011;12217;50.792;4.372;2022-07-04T05:03:14;3.60;;;2.20;;
24008;SDS011;12217;50.792;4.372;2022-07-04T05:05:40;6.25;;;2.28;;
24008;SDS011;12217;50.792;4.372;2022-07-04T05:08:05;5.40;;;2.33;;
24008;SDS011;12217;50.792;4.372;2022-07-04T05:10:31;5.32;;;2.08;;
24008;SDS011;12217;50.792;4.372;2022-07-04T05:12:56;8.88;;;2.45;;
24008;SDS011;12217;50.792;4.372;2022-07-04T05:15:22;5.05;;;1.92;;
24008;SDS011;12217;50.792;4.372;2022-07-04T05:17:48;5.55;;;1.90;;
24008;SDS011;12217;50.792;4.372;2022-07-04T05:20:13;4.40;;;1.90;;
24008;SDS011;12217;50.792;4.372;2022-07-04T05:22:39;3.83;;;1.90;;
24008;SDS011;12217;50.792;4.372;2022-07-04T05:25:05;6.03;;;2.08;;
24008;SDS011;12217;50.792;4.372;2022-07-04T05:27:31;4.55;;;1.90;;
24008;SDS011;12217;50.792;4.372;2022-07-04T05:29:57;3.03;;;1.60;;
24008;SDS011;12217;50.792;4.372;2022-07-04T05:32:24;5.78;;;1.80;;
24008;SDS011;12217;50.792;4.372;2022-07-04T05:34:50;4.07;;;1.90;;
24008;SDS011;12217;50.792;4.372;2022-07-04T05:37:15;3.55;;;1.95;;
24008;SDS011;12217;50.792;4.372;2022-07-04T05:39:41;4.28;;;2.03;;
24008;SDS011;12217;50.792;4.372;2022-07-04T05:42:07;5.35;;;1.80;;
24008;SDS011;12217;50.792;4.372;2022-07-04T05:44:32;5.28;;;2.28;;
24008;SDS011;12217;50.792;4.372;2022-07-04T05:46:58;5.95;;;1.70;;
24008;SDS011;12217;50.792;4.372;2022-07-04T05:49:23;8.18;;;2.55;;
24008;SDS011;12217;50.792;4.372;2022-07-04T05:51:49;5.28;;;2.08;;
24008;SDS011;12217;50.792;4.372;2022-07-04T05:54:15;3.10;;;1.60;;
24008;SDS011;12217;50.792;4.372;2022-07-04T05:56:40;4.82;;;2.25;;
24008;SDS011;12217;50.792;4.372;2022-07-04T05:59:07;5.20;;;2.17;;
24008;SDS011;12217;50.792;4.372;2022-07-04T06:01:34;4.35;;;1.65;;
24008;SDS011;12217;50.792;4.372;2022-07-04T06:04:00;7.55;;;2.15;;
24008;SDS011;12217;50.792;4.372;2022-07-04T06:06:25;6.97;;;1.90;;
24008;SDS011;12217;50.792;4.372;2022-07-04T06:08:51;4.80;;;2.08;;
24008;SDS011;12217;50.792;4.372;2022-07-04T06:11:17;6.07;;;1.63;;
24008;SDS011;12217;50.792;4.372;2022-07-04T06:13:43;4.40;;;1.60;;
24008;SDS011;12217;50.792;4.372;2022-07-04T06:16:09;5.25;;;1.85;;
24008;SDS011;12217;50.792;4.372;2022-07-04T06:18:34;4.95;;;1.88;;
24008;SDS011;12217;50.792;4.372;2022-07-04T06:21:00;6.38;;;1.90;;
24008;SDS011;12217;50.792;4.372;2022-07-04T06:23:26;4.35;;;1.80;;
24008;SDS011;12217;50.792;4.372;2022-07-04T06:25:52;6.32;;;1.77;;
24008;SDS011;12217;50.792;4.372;2022-07-04T06:28:17;4.40;;;1.60;;
24008;SDS011;12217;50.792;4.372;2022-07-04T06:30:43;3.97;;;1.50;;
24008;SDS011;12217;50.792;4.372;2022-07-04T06:33:08;9.23;;;1.85;;
24008;SDS011;12217;50.792;4.372;2022-07-04T06:35:34;3.70;;;1.30;;
24008;SDS011;12217;50.792;4.372;2022-07-04T06:38:35;6.32;;;1.50;;
24008;SDS011;12217;50.792;4.372;2022-07-04T06:41:01;3.13;;;1.55;;
24008;SDS011;12217;50.792;4.372;2022-07-04T06:43:27;4.95;;;1.48;;
24008;SDS011;12217;50.792;4.372;2022-07-04T06:45:53;4.93;;;1.33;;
24008;SDS011;12217;50.792;4.372;2022-07-04T06:48:19;3.42;;;1.15;;
24008;SDS011;12217;50.792;4.372;2022-07-04T06:50:44;7.15;;;1.10;;
24008;SDS011;12217;50.792;4.372;2022-07-04T06:53:10;4.82;;;1.35;;
24008;SDS011;12217;50.792;4.372;2022-07-04T06:55:40;3.10;;;1.20;;
24008;SDS011;12217;50.792;4.372;2022-07-04T06:58:07;4.47;;;1.25;;
24008;SDS011;12217;50.792;4.372;2022-07-04T07:00:33;4.80;;;1.50;;
24008;SDS011;12217;50.792;4.372;2022-07-04T07:03:00;4.20;;;1.50;;
24008;SDS011;12217;50.792;4.372;2022-07-04T07:05:26;4.70;;;1.45;;
24008;SDS011;12217;50.792;4.372;2022-07-04T07:07:53;4.20;;;1.42;;
24008;SDS011;12217;50.792;4.372;2022-07-04T07:10:19;5.55;;;1.42;;
24008;SDS011;12217;50.792;4.372;2022-07-04T07:12:46;4.47;;;1.25;;
24008;SDS011;12217;50.792;4.372;2022-07-04T07:15:12;3.53;;;1.08;;
24008;SDS011;12217;50.792;4.372;2022-07-04T07:17:38;5.43;;;1.00;;
24008;SDS011;12217;50.792;4.372;2022-07-04T07:20:05;7.05;;;1.30;;
24008;SDS011;12217;50.792;4.372;2022-07-04T07:22:31;4.63;;;1.50;;
24008;SDS011;12217;50.792;4.372;2022-07-04T07:24:57;3.85;;;1.42;;
24008;SDS011;12217;50.792;4.372;2022-07-04T07:27:22;6.78;;;1.80;;
24008;SDS011;12217;50.792;4.372;2022-07-04T07:29:48;3.78;;;1.08;;
24008;SDS011;12217;50.792;4.372;2022-07-04T07:32:14;3.70;;;1.15;;
24008;SDS011;12217;50.792;4.372;2022-07-04T07:34:39;3.78;;;1.33;;
24008;SDS011;12217;50.792;4.372;2022-07-04T07:37:05;3.85;;;1.15;;
24008;SDS011;12217;50.792;4.372;2022-07-04T07:39:31;4.35;;;1.05;;
24008;SDS011;12217;50.792;4.372;2022-07-04T07:41:57;2.58;;;0.95;;
24008;SDS011;12217;50.792;4.372;2022-07-04T07:44:23;2.40;;;0.93;;
24008;SDS011;12217;50.792;4.372;2022-07-04T07:46:49;5.85;;;1.27;;
24008;SDS011;12217;50.792;4.372;2022-07-04T07:49:14;2.88;;;1.08;;
24008;SDS011;12217;50.792;4.372;2022-07-04T07:51:40;3.17;;;1.10;;
24008;SDS011;12217;50.792;4.372;2022-07-04T07:54:05;1.45;;;0.80;;
24008;SDS011;12217;50.792;4.372;2022-07-04T07:56:31;2.17;;;0.68;;
24008;SDS011;12217;50.792;4.372;2022-07-04T07:58:57;3.28;;;0.90;;
24008;SDS011;12217;50.792;4.372;2022-07-04T08:01:22;4.60;;;1.08;;
24008;SDS011;12217;50.792;4.372;2022-07-04T08:03:48;4.03;;;1.00;;
24008;SDS011;12217;50.792;4.372;2022-07-04T08:06:33;3.45;;;0.90;;
24008;SDS011;12217;50.792;4.372;2022-07-04T08:08:59;2.58;;;1.10;;
24008;SDS011;12217;50.792;4.372;2022-07-04T08:11:25;4.45;;;1.08;;
24008;SDS011;12217;50.792;4.372;2022-07-04T08:13:51;2.90;;;0.98;;
24008;SDS011;12217;50.792;4.372;2022-07-04T08:16:16;2.58;;;0.90;;
24008;SDS011;12217;50.792;4.372;2022-07-04T08:18:42;4.38;;;0.82;;
24008;SDS011;12217;50.792;4.372;2022-07-04T08:21:08;2.88;;;0.85;;
24008;SDS011;12217;50.792;4.372;2022-07-04T08:23:34;2.13;;;0.90;;
24008;SDS011;12217;50.792;4.372;2022-07-04T08:26:01;2.53;;;0.73;;
24008;SDS011;12217;50.792;4.372;2022-07-04T08:28:28;4.10;;;1.30;;
24008;SDS011;12217;50.792;4.372;2022-07-04T08:30:54;1.92;;;0.85;;
24008;SDS011;12217;50.792;4.372;2022-07-04T08:33:21;1.70;;;0.80;;
24008;SDS011;12217;50.792;4.372;2022-07-04T08:35:47;3.53;;;0.90;;
24008;SDS011;12217;50.792;4.372;2022-07-04T08:38:13;2.28;;;1.10;;
24008;SDS011;12217;50.792;4.372;2022-07-04T08:40:39;2.83;;;0.88;;
24008;SDS011;12217;50.792;4.372;2022-07-04T08:43:05;3.70;;;0.80;;
24008;SDS011;12217;50.792;4.372;2022-07-04T08:45:31;4.05;;;0.88;;
24008;SDS011;12217;50.792;4.372;2022-07-04T08:48:02;3.13;;;0.80;;
24008;SDS011;12217;50.792;4.372;2022-07-04T08:50:32;2.05;;;1.08;;
24008;SDS011;12217;50.792;4.372;2022-07-04T08:53:12;4.60;;;1.10;;
24008;SDS011;12217;50.792;4.372;2022-07-04T08:55:40;4.28;;;0.93;;
24008;SDS011;12217;50.792;4.372;2022-07-04T08:58:25;2.97;;;1.08;;
24008;SDS011;12217;50.792;4.372;2022-07-04T09:00:55;3.95;;;1.10;;
24008;SDS011;12217;50.792;4.372;2022-07-04T09:03:23;3.58;;;1.40;;
24008;SDS011;12217;50.792;4.372;2022-07-04T09:05:50;2.83;;;1.20;;
24008;SDS011;12217;50.792;4.372;2022-07-04T09:08:16;3.92;;;1.40;;
24008;SDS011;12217;50.792;4.372;2022-07-04T09:10:42;4.63;;;1.85;;
24008;SDS011;12217;50.792;4.372;2022-07-04T09:13:08;9.07;;;3.90;;
24008;SDS011;12217;50.792;4.372;2022-07-04T09:15:35;8.35;;;4.65;;
24008;SDS011;12217;50.792;4.372;2022-07-04T09:18:02;8.95;;;4.97;;
24008;SDS011;12217;50.792;4.372;2022-07-04T09:20:30;8.57;;;5.47;;
24008;SDS011;12217;50.792;4.372;2022-07-04T09:22:57;11.90;;;7.75;;
24008;SDS011;12217;50.792;4.372;2022-07-04T09:25:23;14.98;;;8.98;;
24008;SDS011;12217;50.792;4.372;2022-07-04T09:27:53;15.88;;;9.48;;
24008;SDS011;12217;50.792;4.372;2022-07-04T09:30:25;19.23;;;10.00;;
24008;SDS011;12217;50.792;4.372;2022-07-04T09:32:55;18.60;;;10.33;;
24008;SDS011;12217;50.792;4.372;2022-07-04T09:35:26;18.35;;;10.63;;
24008;SDS011;12217;50.792;4.372;2022-07-04T09:37:54;18.77;;;10.00;;
24008;SDS011;12217;50.792;4.372;2022-07-04T09:42:50;23.80;;;13.27;;
24008;SDS011;12217;50.792;4.372;2022-07-04T09:45:16;24.30;;;13.98;;
24008;SDS011;12217;50.792;4.372;2022-07-04T09:47:44;26.52;;;15.27;;
24008;SDS011;12217;50.792;4.372;2022-07-04T09:55:24;28.85;;;15.55;;
24008;SDS011;12217;50.792;4.372;2022-07-04T09:57:58;24.35;;;14.07;;
24008;SDS011;12217;50.792;4.372;2022-07-04T10:00:27;22.00;;;12.65;;
24008;SDS011;12217;50.792;4.372;2022-07-04T10:02:57;19.95;;;12.10;;
24008;SDS011;12217;50.792;4.372;2022-07-04T10:08:32;24.33;;;13.27;;
24008;SDS011;12217;50.792;4.372;2022-07-04T10:10:59;20.50;;;11.80;;
24008;SDS011;12217;50.792;4.372;2022-07-04T10:13:25;17.52;;;10.35;;
24008;SDS011;12217;50.792;4.372;2022-07-04T10:15:52;17.27;;;10.27;;
24008;SDS011;12217;50.792;4.372;2022-07-04T10:18:18;18.23;;;10.05;;
24008;SDS011;12217;50.792;4.372;2022-07-04T10:20:45;17.83;;;9.60;;
24008;SDS011;12217;50.792;4.372;2022-07-04T10:23:13;20.13;;;10.15;;
24008;SDS011;12217;50.792;4.372;2022-07-04T10:25:40;25.02;;;10.20;;
24008;SDS011;12217;50.792;4.372;2022-07-04T10:28:07;14.30;;;7.03;;
24008;SDS011;12217;50.792;4.372;2022-07-04T10:30:34;12.88;;;5.75;;
24008;SDS011;12217;50.792;4.372;2022-07-04T10:33:04;8.20;;;4.57;;
24008;SDS011;12217;50.792;4.372;2022-07-04T10:35:51;6.90;;;4.25;;
24008;SDS011;12217;50.792;4.372;2022-07-04T10:38:23;3.90;;;1.77;;
24008;SDS011;12217;50.792;4.372;2022-07-04T10:40:51;4.85;;;1.38;;
24008;SDS011;12217;50.792;4.372;2022-07-04T10:43:37;4.75;;;1.30;;
24008;SDS011;12217;50.792;4.372;2022-07-04T10:48:51;3.70;;;1.35;;
24008;SDS011;12217;50.792;4.372;2022-07-04T10:59:18;1.88;;;0.90;;
24008;SDS011;12217;50.792;4.372;2022-07-04T11:01:48;3.25;;;1.20;;
24008;SDS011;12217;50.792;4.372;2022-07-04T11:05:16;3.35;;;1.30;;
24008;SDS011;12217;50.792;4.372;2022-07-04T11:07:13;3.83;;;1.30;;
24008;SDS011;12217;50.792;4.372;2022-07-04T11:09:40;3.08;;;1.02;;
24008;SDS011;12217;50.792;4.372;2022-07-04T11:12:07;2.75;;;1.17;;
24008;SDS011;12217;50.792;4.372;2022-07-04T11:14:40;2.13;;;1.27;;
24008;SDS011;12217;50.792;4.372;2022-07-04T11:17:11;4.68;;;2.08;;
24008;SDS011;12217;50.792;4.372;2022-07-04T11:19:45;2.35;;;1.25;;
24008;SDS011;12217;50.792;4.372;2022-07-04T11:22:11;2.85;;;1.40;;
24008;SDS011;12217;50.792;4.372;2022-07-04T11:24:38;2.83;;;1.30;;
24008;SDS011;12217;50.792;4.372;2022-07-04T11:27:06;2.58;;;1.23;;
24008;SDS011;12217;50.792;4.372;2022-07-04T11:29:34;3.72;;;1.10;;
24008;SDS011;12217;50.792;4.372;2022-07-04T11:31:59;3.35;;;1.20;;
24008;SDS011;12217;50.792;4.372;2022-07-04T11:34:30;2.75;;;1.10;;
24008;SDS011;12217;50.792;4.372;2022-07-04T11:36:57;5.30;;;1.50;;
24008;SDS011;12217;50.792;4.372;2022-07-04T11:39:26;4.70;;;1.05;;
24008;SDS011;12217;50.792;4.372;2022-07-04T11:41:52;3.03;;;0.93;;
24008;SDS011;12217;50.792;4.372;2022-07-04T11:44:38;3.53;;;1.30;;
24008;SDS011;12217;50.792;4.372;2022-07-04T11:47:24;3.25;;;1.23;;
24008;SDS011;12217;50.792;4.372;2022-07-04T11:52:18;3.88;;;1.48;;
24008;SDS011;12217;50.792;4.372;2022-07-04T11:54:49;5.20;;;1.40;;
24008;SDS011;12217;50.792;4.372;2022-07-04T12:02:26;4.28;;;1.45;;
24008;SDS011;12217;50.792;4.372;2022-07-04T12:04:53;5.30;;;1.60;;
24008;SDS011;12217;50.792;4.372;2022-07-04T12:07:22;4.22;;;1.33;;
24008;SDS011;12217;50.792;4.372;2022-07-04T12:09:49;2.45;;;1.08;;
24008;SDS011;12217;50.792;4.372;2022-07-04T12:12:15;4.35;;;1.35;;
24008;SDS011;12217;50.792;4.372;2022-07-04T12:17:33;5.20;;;1.75;;
24008;SDS011;12217;50.792;4.372;2022-07-04T12:20:04;2.53;;;1.30;;
24008;SDS011;12217;50.792;4.372;2022-07-04T12:22:40;3.05;;;1.33;;
24008;SDS011;12217;50.792;4.372;2022-07-04T12:25:18;6.57;;;1.73;;
24008;SDS011;12217;50.792;4.372;2022-07-04T12:30:50;4.28;;;1.20;;
24008;SDS011;12217;50.792;4.372;2022-07-04T12:33:17;4.32;;;1.45;;
24008;SDS011;12217;50.792;4.372;2022-07-04T12:40:50;3.55;;;1.30;;
24008;SDS011;12217;50.792;4.372;2022-07-04T12:43:18;1.88;;;1.00;;
24008;SDS011;12217;50.792;4.372;2022-07-04T12:45:45;4.13;;;1.33;;
24008;SDS011;12217;50.792;4.372;2022-07-04T12:48:19;3.33;;;1.38;;
24008;SDS011;12217;50.792;4.372;2022-07-04T12:50:52;2.03;;;1.00;;
24008;SDS011;12217;50.792;4.372;2022-07-04T12:53:20;3.33;;;1.30;;
24008;SDS011;12217;50.792;4.372;2022-07-04T12:55:46;5.57;;;1.20;;
24008;SDS011;12217;50.792;4.372;2022-07-04T12:58:13;2.38;;;1.10;;
24008;SDS011;12217;50.792;4.372;2022-07-04T13:00:39;3.10;;;1.10;;
24008;SDS011;12217;50.792;4.372;2022-07-04T13:03:06;2.25;;;1.10;;
24008;SDS011;12217;50.792;4.372;2022-07-04T13:05:34;4.47;;;1.30;;
24008;SDS011;12217;50.792;4.372;2022-07-04T13:08:01;3.85;;;1.20;;
24008;SDS011;12217;50.792;4.372;2022-07-04T13:10:27;2.78;;;1.10;;
24008;SDS011;12217;50.792;4.372;2022-07-04T13:12:52;1.77;;;0.85;;
24008;SDS011;12217;50.792;4.372;2022-07-04T13:15:18;2.22;;;0.93;;
24008;SDS011;12217;50.792;4.372;2022-07-04T13:17:44;5.82;;;0.95;;
24008;SDS011;12217;50.792;4.372;2022-07-04T13:20:10;4.50;;;1.08;;
24008;SDS011;12217;50.792;4.372;2022-07-04T13:22:37;1.90;;;0.88;;
24008;SDS011;12217;50.792;4.372;2022-07-04T13:25:03;1.20;;;0.90;;
24008;SDS011;12217;50.792;4.372;2022-07-04T13:27:29;3.63;;;1.10;;
24008;SDS011;12217;50.792;4.372;2022-07-04T13:29:55;4.22;;;1.13;;
24008;SDS011;12217;50.792;4.372;2022-07-04T13:32:20;2.80;;;1.15;;
24008;SDS011;12217;50.792;4.372;2022-07-04T13:34:46;2.58;;;1.17;;
24008;SDS011;12217;50.792;4.372;2022-07-04T13:37:12;2.47;;;1.10;;
24008;SDS011;12217;50.792;4.372;2022-07-04T13:39:40;2.60;;;1.02;;
24008;SDS011;12217;50.792;4.372;2022-07-04T13:42:05;4.43;;;1.10;;
24008;SDS011;12217;50.792;4.372;2022-07-04T13:44:31;2.53;;;1.00;;
24008;SDS011;12217;50.792;4.372;2022-07-04T13:46:57;2.50;;;0.98;;
24008;SDS011;12217;50.792;4.372;2022-07-04T13:49:23;3.33;;;1.08;;
24008;SDS011;12217;50.792;4.372;2022-07-04T13:51:49;3.20;;;1.13;;
24008;SDS011;12217;50.792;4.372;2022-07-04T13:54:15;1.95;;;1.00;;
24008;SDS011;12217;50.792;4.372;2022-07-04T13:56:40;2.95;;;1.00;;
24008;SDS011;12217;50.792;4.372;2022-07-04T13:59:07;2.22;;;1.00;;
24008;SDS011;12217;50.792;4.372;2022-07-04T14:01:33;1.40;;;0.93;;
24008;SDS011;12217;50.792;4.372;2022-07-04T14:03:58;2.63;;;0.95;;
24008;SDS011;12217;50.792;4.372;2022-07-04T14:06:24;5.53;;;1.10;;
24008;SDS011;12217;50.792;4.372;2022-07-04T14:08:50;1.77;;;0.90;;
24008;SDS011;12217;50.792;4.372;2022-07-04T14:11:15;1.98;;;0.82;;
24008;SDS011;12217;50.792;4.372;2022-07-04T14:13:41;3.30;;;1.10;;
24008;SDS011;12217;50.792;4.372;2022-07-04T14:16:07;2.72;;;1.40;;
24008;SDS011;12217;50.792;4.372;2022-07-04T14:18:33;3.28;;;1.10;;
24008;SDS011;12217;50.792;4.372;2022-07-04T14:20:58;4.63;;;1.13;;
24008;SDS011;12217;50.792;4.372;2022-07-04T14:23:24;2.05;;;1.10;;
24008;SDS011;12217;50.792;4.372;2022-07-04T14:26:05;1.92;;;1.00;;
24008;SDS011;12217;50.792;4.372;2022-07-04T14:28:35;2.63;;;1.05;;
24008;SDS011;12217;50.792;4.372;2022-07-04T14:31:02;2.05;;;0.90;;
24008;SDS011;12217;50.792;4.372;2022-07-04T14:33:27;4.00;;;1.20;;
24008;SDS011;12217;50.792;4.372;2022-07-04T14:35:54;3.00;;;0.90;;
24008;SDS011;12217;50.792;4.372;2022-07-04T14:38:20;2.78;;;1.02;;
24008;SDS011;12217;50.792;4.372;2022-07-04T14:40:46;2.30;;;1.05;;
24008;SDS011;12217;50.792;4.372;2022-07-04T14:43:14;2.78;;;1.15;;
24008;SDS011;12217;50.792;4.372;2022-07-04T14:45:42;1.58;;;1.00;;
24008;SDS011;12217;50.792;4.372;2022-07-04T14:48:08;3.38;;;1.30;;
24008;SDS011;12217;50.792;4.372;2022-07-04T14:50:33;4.65;;;1.20;;
24008;SDS011;12217;50.792;4.372;2022-07-04T14:52:59;2.53;;;1.10;;
24008;SDS011;12217;50.792;4.372;2022-07-04T14:55:25;4.75;;;0.93;;
24008;SDS011;12217;50.792;4.372;2022-07-04T14:57:50;2.70;;;1.00;;
24008;SDS011;12217;50.792;4.372;2022-07-04T15:00:16;2.67;;;1.35;;
24008;SDS011;12217;50.792;4.372;2022-07-04T15:02:42;1.75;;;1.00;;
24008;SDS011;12217;50.792;4.372;2022-07-04T15:05:11;2.97;;;1.10;;
24008;SDS011;12217;50.792;4.372;2022-07-04T15:07:37;3.35;;;1.20;;
24008;SDS011;12217;50.792;4.372;2022-07-04T15:10:03;2.05;;;0.90;;
24008;SDS011;12217;50.792;4.372;2022-07-04T15:12:32;1.52;;;0.77;;
24008;SDS011;12217;50.792;4.372;2022-07-04T15:14:58;4.43;;;1.02;;
24008;SDS011;12217;50.792;4.372;2022-07-04T15:17:24;2.53;;;1.00;;
24008;SDS011;12217;50.792;4.372;2022-07-04T15:19:49;1.77;;;1.00;;
24008;SDS011;12217;50.792;4.372;2022-07-04T15:22:33;2.92;;;1.00;;
24008;SDS011;12217;50.792;4.372;2022-07-04T15:25:17;1.25;;;1.00;;